createdAt,value
2019-06-07T00:14:48.514Z,100136.48
2019-06-07T00:29:55.958Z,100152.31
2019-06-07T00:45:04.259Z,100157.16
2019-06-07T01:00:15.592Z,100157.16
2019-06-07T01:15:28.742Z,100159.54
2019-06-07T01:30:34.339Z,100179.59
2019-06-07T01:45:41.849Z,100166.42
2019-06-07T02:00:49.171Z,100179.28
2019-06-07T02:15:56.795Z,100185.98
2019-06-07T02:31:04.378Z,100168.23
2019-06-07T02:46:27.757Z,100174.20
2019-06-07T03:01:24.704Z,100186.95
2019-06-07T03:16:37.326Z,100185.66
2019-06-07T03:31:48.069Z,100205.75
2019-06-07T03:46:55.070Z,100207.87
2019-06-07T04:02:02.581Z,100213.47
2019-06-07T04:17:10.015Z,100236.03
2019-06-07T04:32:18.930Z,100250.70
2019-06-07T04:56:44.140Z,100250.84
2019-06-07T05:11:48.013Z,100254.88
2019-06-07T05:26:55.968Z,100254.92
2019-06-07T05:42:03.174Z,100266.45
2019-06-07T05:57:10.554Z,100261.86
2019-06-07T06:12:34.028Z,100240.42
2019-06-07T06:42:42.254Z,100260.64
2019-06-07T06:57:51.366Z,100257.48
2019-06-07T07:12:59.024Z,100258.94
2019-06-07T07:28:08.617Z,100258.94
2019-06-07T07:43:16.168Z,100241.05
2019-06-07T07:58:24.086Z,100261.70
2019-06-07T08:13:34.682Z,100270.81
2019-06-07T08:28:42.476Z,100281.05
2019-06-07T08:43:51.393Z,100294.11
2019-06-07T08:59:03.011Z,100306.39
2019-06-07T09:14:09.136Z,100311.60
2019-06-07T09:29:18.066Z,100308.35
2019-06-07T09:44:26.536Z,100319.48
2019-06-07T09:59:34.506Z,100313.81
2019-06-07T10:14:45.120Z,100317.12
2019-06-07T10:29:51.335Z,100307.59
2019-06-07T10:44:59.035Z,100299.56
2019-06-07T11:00:11.650Z,100297.66
2019-06-07T11:15:19.993Z,100277.64
2019-06-07T11:30:27.549Z,100261.75
2019-06-07T11:45:35.132Z,100261.86
2019-06-07T12:00:42.703Z,100257.09
2019-06-07T12:15:50.081Z,100251.22
2019-06-07T12:30:57.571Z,100245.91
2019-06-07T12:46:05.331Z,100225.91
2019-06-07T13:01:13.771Z,100217.41
2019-06-07T13:16:23.895Z,100211.07
2019-06-07T13:31:31.655Z,100211.84
2019-06-07T13:46:38.834Z,100197.41
2019-06-07T14:01:45.181Z,100201.38
2019-06-07T14:16:52.865Z,100201.36
2019-06-07T14:37:07.563Z,100210.76
2019-06-07T14:52:15.033Z,100205.45
2019-06-07T15:07:24.129Z,100211.02
2019-06-07T15:22:31.967Z,100220.53
2019-06-07T15:37:39.550Z,100235.53
2019-06-07T15:52:47.177Z,100255.38
2019-06-07T16:07:55.044Z,100239.92
2019-06-07T16:23:02.417Z,100259.32
2019-06-07T16:38:11.892Z,100267.41
2019-06-07T16:53:19.219Z,100277.30
2019-06-07T17:08:26.683Z,100278.80
2019-06-07T17:23:33.945Z,100271.40
2019-06-07T17:38:42.645Z,100273.80
2019-06-07T17:53:50.025Z,100289.63
2019-06-07T18:08:59.878Z,100297.24
2019-06-07T18:24:08.640Z,100300.64
2019-06-07T18:39:16.005Z,100299.09
2019-06-07T18:54:23.922Z,100315.95
2019-06-07T19:09:33.011Z,100321.55
2019-06-07T19:24:40.874Z,100332.36
2019-06-07T19:39:48.731Z,100343.10
2019-06-07T19:54:57.573Z,100357.45
2019-06-07T20:10:06.726Z,100350.73
2019-06-07T20:25:14.294Z,100337.12
2019-06-07T20:40:24.706Z,100351.24
2019-06-07T20:55:31.023Z,100348.91
2019-06-07T21:10:40.427Z,100320.27
2019-06-07T21:25:48.169Z,100349.41
2019-06-07T21:40:56.147Z,100349.91
2019-06-07T21:56:04.795Z,100363.88
2019-06-07T22:11:14.055Z,100363.88
2019-06-07T22:26:22.290Z,100358.38
2019-06-07T22:41:29.987Z,100359.31
2019-06-07T22:56:41.774Z,100355.80
2019-06-07T23:11:49.541Z,100336.47
2019-06-07T23:26:57.136Z,100336.47
2019-06-07T23:42:04.571Z,100350.44
2019-06-07T23:57:12.184Z,100350.44
